Time;durP1;ratioP1;P1;durP2;ratioP2;P2;SDS_P1;SDS_P2;PMS_P1;PMS_P2;Temp;Humidity;BMP_temperature;BMP_pressure;BME280_temperature;BME280_humidity;BME280_pressure;Samples;Min_cycle;Max_cycle;Signal;HPM_P1;HPM_P2
2023/05/15 00:00:39;;;;;;;0.93;0.88;;;13.90;99.90;;;;;;4411392;32;20085;-68
2023/05/15 00:03:04;;;;;;;2.20;0.90;;;13.80;99.90;;;;;;4407869;32;21193;-68
2023/05/15 00:05:30;;;;;;;0.65;0.65;;;13.70;99.90;;;;;;4410148;32;20144;-67
2023/05/15 00:07:55;;;;;;;2.70;1.05;;;13.60;99.90;;;;;;4412277;32;20061;-67
2023/05/15 00:10:21;;;;;;;0.50;0.50;;;13.60;99.90;;;;;;4410213;32;20101;-67
2023/05/15 00:12:46;;;;;;;2.90;0.60;;;13.60;99.90;;;;;;4410633;32;20424;-68
2023/05/15 00:15:12;;;;;;;0.77;0.77;;;13.70;99.90;;;;;;4409562;32;20078;-68
2023/05/15 00:17:37;;;;;;;0.82;0.68;;;13.60;99.90;;;;;;4406191;32;20521;-68
2023/05/15 00:20:04;;;;;;;1.45;1.08;;;13.50;99.90;;;;;;4408845;32;20100;-67
2023/05/15 00:22:29;;;;;;;2.50;0.65;;;13.40;99.90;;;;;;4412558;32;20098;-68
2023/05/15 00:24:54;;;;;;;1.25;0.80;;;13.40;99.90;;;;;;4411425;32;20081;-68
2023/05/15 00:27:20;;;;;;;1.10;1.00;;;13.50;99.90;;;;;;4408192;32;20081;-67
2023/05/15 00:29:45;;;;;;;1.55;1.00;;;13.50;99.90;;;;;;4411070;32;20485;-68
2023/05/15 00:32:11;;;;;;;8.88;1.35;;;13.50;99.90;;;;;;4410888;32;20116;-68
2023/05/15 00:34:36;;;;;;;0.60;0.60;;;13.30;99.90;;;;;;4409133;32;20132;-68
2023/05/15 00:37:02;;;;;;;1.55;0.95;;;13.10;99.90;;;;;;4408076;32;20086;-67
2023/05/15 00:39:27;;;;;;;0.50;0.50;;;13.10;99.90;;;;;;4407883;32;20643;-68
2023/05/15 00:41:54;;;;;;;1.98;0.98;;;13.10;99.90;;;;;;4407704;32;20106;-67
2023/05/15 00:44:21;;;;;;;3.90;1.48;;;13.20;99.90;;;;;;4409497;32;20077;-68
2023/05/15 00:46:48;;;;;;;0.70;0.70;;;13.10;99.90;;;;;;4409034;32;20056;-68
2023/05/15 00:49:14;;;;;;;0.50;0.50;;;13.10;99.90;;;;;;4394872;32;20093;-67
2023/05/15 00:51:41;;;;;;;1.17;1.00;;;13.00;99.90;;;;;;4407965;32;20575;-68
2023/05/15 00:54:07;;;;;;;0.60;0.52;;;12.90;99.90;;;;;;4409015;32;20869;-67
2023/05/15 00:56:33;;;;;;;4.50;1.85;;;12.90;99.90;;;;;;4408896;32;20155;-67
2023/05/15 00:59:01;;;;;;;0.73;0.73;;;12.80;99.90;;;;;;4409266;32;20101;-67
2023/05/15 01:01:32;;;;;;;0.40;0.40;;;12.90;99.90;;;;;;4396057;32;20156;-67
2023/05/15 01:03:57;;;;;;;1.98;0.90;;;12.80;99.90;;;;;;4409323;32;20073;-67
2023/05/15 01:06:23;;;;;;;1.42;1.20;;;12.90;99.90;;;;;;4396735;32;20332;-67
2023/05/15 01:08:49;;;;;;;1.35;0.95;;;12.80;99.90;;;;;;4408528;32;20136;-67
2023/05/15 01:11:16;;;;;;;0.47;0.47;;;12.90;99.90;;;;;;4410693;32;20537;-67
2023/05/15 01:13:41;;;;;;;0.73;0.70;;;12.90;99.90;;;;;;4392152;32;20200;-68
2023/05/15 01:16:08;;;;;;;2.62;1.23;;;12.90;99.90;;;;;;4396660;32;20062;-67
2023/05/15 01:18:34;;;;;;;0.73;0.73;;;12.70;99.90;;;;;;4407597;32;20118;-68
2023/05/15 01:21:11;;;;;;;6.72;1.67;;;12.50;99.90;;;;;;4409895;32;20577;-68
2023/05/15 01:23:44;;;;;;;0.68;0.68;;;12.50;99.90;;;;;;4408892;32;20077;-68
2023/05/15 01:26:34;;;;;;;0.37;0.37;;;12.60;99.90;;;;;;4410351;32;20121;-68
2023/05/15 01:29:13;;;;;;;9.38;3.03;;;12.50;99.90;;;;;;4398722;32;20788;-67
2023/05/15 01:31:42;;;;;;;2.37;0.80;;;12.50;99.90;;;;;;4407110;32;20062;-68
2023/05/15 01:34:09;;;;;;;0.95;0.82;;;12.40;99.90;;;;;;4407421;32;20468;-67
2023/05/15 01:36:41;;;;;;;1.02;0.93;;;12.30;99.90;;;;;;4396995;32;20603;-67
2023/05/15 01:39:09;;;;;;;2.42;0.70;;;12.20;99.90;;;;;;4393119;32;20085;-67
2023/05/15 01:41:44;;;;;;;1.02;0.93;;;12.20;99.90;;;;;;4408702;32;20082;-67
2023/05/15 01:44:15;;;;;;;1.58;1.25;;;12.10;99.90;;;;;;4396747;32;20149;-67
2023/05/15 01:46:45;;;;;;;0.50;0.50;;;12.00;99.90;;;;;;4410822;32;20290;-68
2023/05/15 01:49:14;;;;;;;0.97;0.97;;;12.20;99.90;;;;;;4408574;32;20560;-68
2023/05/15 01:51:43;;;;;;;0.70;0.70;;;12.20;99.90;;;;;;4408126;32;20090;-67
2023/05/15 01:54:09;;;;;;;0.52;0.52;;;12.20;99.90;;;;;;4406124;32;20599;-67
2023/05/15 01:56:36;;;;;;;1.42;1.15;;;12.20;99.90;;;;;;4409421;32;20435;-68
2023/05/15 01:59:04;;;;;;;0.52;0.50;;;12.10;99.90;;;;;;4408478;32;20106;-67
2023/05/15 02:01:31;;;;;;;0.43;0.43;;;12.00;99.90;;;;;;4408741;32;20053;-69
2023/05/15 02:03:58;;;;;;;2.47;1.20;;;12.00;99.90;;;;;;4410902;32;20093;-67
2023/05/15 02:06:24;;;;;;;0.80;0.62;;;12.00;99.90;;;;;;4411519;32;20121;-67
2023/05/15 02:08:51;;;;;;;6.53;1.35;;;12.00;99.90;;;;;;4411143;32;20078;-67
2023/05/15 02:11:17;;;;;;;0.60;0.60;;;12.10;99.90;;;;;;4405679;32;20089;-67
2023/05/15 02:13:43;;;;;;;3.00;1.45;;;12.20;99.90;;;;;;4408593;32;20124;-66
2023/05/15 02:16:09;;;;;;;5.60;1.37;;;12.20;99.90;;;;;;4409291;32;20085;-69
2023/05/15 02:18:34;;;;;;;1.12;0.90;;;12.10;99.90;;;;;;4410558;32;20535;-66
2023/05/15 02:21:01;;;;;;;0.80;0.77;;;12.10;99.90;;;;;;4413682;32;20118;-68
2023/05/15 02:23:27;;;;;;;1.67;1.23;;;12.10;99.90;;;;;;4414487;32;20533;-67
2023/05/15 02:26:21;;;;;;;2.28;1.58;;;12.10;99.90;;;;;;4412400;32;20093;-68
2023/05/15 02:29:02;;;;;;;0.82;0.73;;;11.90;99.90;;;;;;4401462;32;20081;-67
2023/05/15 02:31:56;;;;;;;3.87;1.35;;;11.80;99.90;;;;;;4399651;32;20097;-68
2023/05/15 02:34:32;;;;;;;1.10;1.00;;;11.60;99.90;;;;;;4398233;32;20098;-68
2023/05/15 02:37:00;;;;;;;0.70;0.70;;;11.50;99.90;;;;;;4385011;32;20073;-68
2023/05/15 02:39:26;;;;;;;0.75;0.75;;;11.50;99.90;;;;;;4410961;32;20446;-68
2023/05/15 02:41:52;;;;;;;0.65;0.65;;;11.70;99.90;;;;;;4399459;32;20556;-67
2023/05/15 02:44:19;;;;;;;0.70;0.70;;;11.70;99.90;;;;;;4412991;32;20171;-67
2023/05/15 02:46:47;;;;;;;0.70;0.70;;;11.60;99.90;;;;;;4412528;32;20094;-68
2023/05/15 02:49:13;;;;;;;1.67;0.68;;;11.60;99.90;;;;;;4410336;32;20103;-68
2023/05/15 02:51:39;;;;;;;0.52;0.52;;;11.70;99.90;;;;;;4408922;32;20074;-68
2023/05/15 02:54:05;;;;;;;1.50;1.37;;;11.70;99.90;;;;;;4412272;32;20181;-68
2023/05/15 02:56:30;;;;;;;1.05;0.82;;;11.70;99.90;;;;;;4411880;32;20435;-68
2023/05/15 02:58:56;;;;;;;0.68;0.60;;;11.60;99.90;;;;;;4412192;32;20073;-68
2023/05/15 03:01:22;;;;;;;2.35;0.70;;;11.50;99.90;;;;;;4411603;32;20853;-68
2023/05/15 03:03:47;;;;;;;1.33;1.10;;;11.40;99.90;;;;;;4409090;32;20553;-68
2023/05/15 03:06:13;;;;;;;0.60;0.60;;;11.40;99.90;;;;;;4412567;32;20373;-67
2023/05/15 03:08:38;;;;;;;0.82;0.80;;;11.40;99.90;;;;;;4413479;32;20542;-68
2023/05/15 03:11:04;;;;;;;0.70;0.70;;;11.40;99.90;;;;;;4410764;32;20462;-68
2023/05/15 03:13:29;;;;;;;0.85;0.85;;;11.50;99.90;;;;;;4410783;32;21195;-68
2023/05/15 03:15:55;;;;;;;1.45;0.75;;;11.50;99.90;;;;;;4412896;32;20157;-67
2023/05/15 03:18:20;;;;;;;2.28;1.50;;;11.40;99.90;;;;;;4412666;32;20450;-68
2023/05/15 03:20:48;;;;;;;1.55;0.88;;;11.40;99.90;;;;;;4413492;32;20082;-68
2023/05/15 03:23:14;;;;;;;0.90;0.90;;;11.40;99.90;;;;;;4400064;32;20089;-69
2023/05/15 03:25:39;;;;;;;0.57;0.57;;;11.50;99.90;;;;;;4411438;32;20070;-68
2023/05/15 03:28:05;;;;;;;1.27;1.17;;;11.50;99.90;;;;;;4411241;32;20121;-68
2023/05/15 03:30:30;;;;;;;10.75;3.40;;;11.50;99.90;;;;;;4411764;32;20105;-68
2023/05/15 03:32:56;;;;;;;2.37;0.80;;;11.50;99.90;;;;;;4411323;32;20077;-68
2023/05/15 03:35:22;;;;;;;0.40;0.40;;;11.60;99.90;;;;;;4413673;32;20077;-68
2023/05/15 03:37:47;;;;;;;0.45;0.45;;;11.60;99.90;;;;;;4414758;32;20069;-67
2023/05/15 03:40:13;;;;;;;3.17;0.70;;;11.60;99.90;;;;;;4409571;32;20073;-67
2023/05/15 03:42:38;;;;;;;0.60;0.60;;;11.50;99.90;;;;;;4412139;32;20139;-68
2023/05/15 03:45:04;;;;;;;0.60;0.60;;;11.50;99.90;;;;;;4410577;32;20089;-68
2023/05/15 03:47:30;;;;;;;1.30;0.82;;;11.50;99.90;;;;;;4413445;32;20506;-68
2023/05/15 03:49:55;;;;;;;2.50;1.02;;;11.50;99.90;;;;;;4412029;32;20105;-68
2023/05/15 03:52:21;;;;;;;0.75;0.75;;;11.50;99.90;;;;;;4413875;32;20188;-68
2023/05/15 03:54:46;;;;;;;0.73;0.73;;;11.60;99.90;;;;;;4413375;32;20105;-68
2023/05/15 03:57:12;;;;;;;0.70;0.70;;;11.60;99.90;;;;;;4409553;32;20200;-68
2023/05/15 03:59:38;;;;;;;7.47;1.77;;;11.30;99.90;;;;;;4407330;32;20132;-68
2023/05/15 04:02:03;;;;;;;1.60;1.50;;;11.30;99.90;;;;;;4411758;32;20446;-67
2023/05/15 04:04:29;;;;;;;3.45;1.80;;;11.20;99.90;;;;;;4409596;32;20127;-68
2023/05/15 04:06:54;;;;;;;0.75;0.70;;;11.40;99.90;;;;;;4395929;32;20152;-68
2023/05/15 04:09:20;;;;;;;1.42;1.05;;;11.50;99.90;;;;;;4412604;32;20545;-67
2023/05/15 04:11:46;;;;;;;1.37;0.85;;;11.60;99.90;;;;;;4410514;32;20069;-68
2023/05/15 04:14:11;;;;;;;4.75;1.20;;;11.50;99.90;;;;;;4410638;32;20466;-67
2023/05/15 04:16:37;;;;;;;2.75;0.80;;;11.50;99.90;;;;;;4410632;32;20069;-68
2023/05/15 04:19:02;;;;;;;1.12;0.95;;;11.60;99.90;;;;;;4411687;32;20098;-67
2023/05/15 04:21:28;;;;;;;18.33;1.00;;;11.70;99.90;;;;;;4399792;32;20085;-66
2023/05/15 04:23:53;;;;;;;0.45;0.45;;;11.70;99.90;;;;;;4406709;32;20073;-67
2023/05/15 04:26:19;;;;;;;1.25;1.15;;;11.60;99.90;;;;;;4408148;32;20530;-67
2023/05/15 04:28:44;;;;;;;0.93;0.65;;;11.60;99.90;;;;;;4411143;32;20092;-67
2023/05/15 04:31:10;;;;;;;0.70;0.70;;;11.60;99.90;;;;;;4409247;32;20092;-68
2023/05/15 04:33:38;;;;;;;0.60;0.60;;;11.60;99.90;;;;;;4397184;32;20093;-67
2023/05/15 04:36:04;;;;;;;3.85;0.98;;;11.60;99.90;;;;;;4398315;32;20097;-67
2023/05/15 04:38:30;;;;;;;0.60;0.60;;;11.60;99.90;;;;;;4412260;32;20078;-66
2023/05/15 04:40:55;;;;;;;1.00;0.80;;;11.70;99.90;;;;;;4408972;32;20069;-67
2023/05/15 04:43:21;;;;;;;3.08;1.67;;;11.90;99.90;;;;;;4410251;32;20501;-67
2023/05/15 04:45:47;;;;;;;1.48;0.70;;;12.00;99.90;;;;;;4407890;32;20410;-67
2023/05/15 04:48:12;;;;;;;1.58;1.05;;;12.20;99.90;;;;;;4396323;32;20102;-67
2023/05/15 04:50:38;;;;;;;0.70;0.70;;;12.40;99.90;;;;;;4406023;32;20153;-67
2023/05/15 04:53:03;;;;;;;0.80;0.68;;;12.50;99.90;;;;;;4404473;32;20623;-67
2023/05/15 04:55:28;;;;;;;1.40;1.08;;;12.60;99.90;;;;;;4408425;32;20078;-68
2023/05/15 04:57:54;;;;;;;1.23;1.00;;;12.60;99.90;;;;;;4408474;32;20120;-67
2023/05/15 05:00:19;;;;;;;2.17;1.33;;;12.70;99.90;;;;;;4404584;32;20114;-66
2023/05/15 05:02:46;;;;;;;4.65;2.22;;;12.70;99.90;;;;;;4401412;32;20119;-67
2023/05/15 05:05:13;;;;;;;1.10;1.02;;;12.80;99.90;;;;;;4404218;32;20089;-68
2023/05/15 05:07:39;;;;;;;0.93;0.85;;;12.90;99.90;;;;;;4406458;32;20089;-67
2023/05/15 05:10:05;;;;;;;2.00;0.80;;;13.10;99.90;;;;;;4392082;32;20136;-67
2023/05/15 05:12:30;;;;;;;0.73;0.73;;;13.10;99.90;;;;;;4407132;32;20132;-67
2023/05/15 05:14:56;;;;;;;2.55;1.12;;;13.20;99.90;;;;;;4407702;32;20125;-67
2023/05/15 05:17:22;;;;;;;1.75;1.37;;;13.20;99.90;;;;;;4392750;32;20085;-68
2023/05/15 05:19:49;;;;;;;0.77;0.77;;;13.30;99.90;;;;;;4400957;32;20144;-67
2023/05/15 05:22:15;;;;;;;1.42;1.02;;;13.20;99.90;;;;;;4407860;32;20080;-69
2023/05/15 05:24:40;;;;;;;0.70;0.70;;;13.10;99.90;;;;;;4401996;32;20471;-67
2023/05/15 05:27:06;;;;;;;12.88;1.67;;;13.20;99.90;;;;;;4381941;32;20136;-67
2023/05/15 05:29:31;;;;;;;0.70;0.70;;;13.20;99.90;;;;;;4390444;32;20140;-67
2023/05/15 05:31:57;;;;;;;2.55;0.65;;;13.30;99.90;;;;;;4372525;32;20448;-67
2023/05/15 05:34:25;;;;;;;0.77;0.77;;;13.40;99.90;;;;;;4380171;32;20513;-68
2023/05/15 05:36:50;;;;;;;3.85;0.98;;;13.50;99.90;;;;;;4396880;32;20189;-68
2023/05/15 05:39:18;;;;;;;1.65;0.98;;;13.60;99.90;;;;;;4395008;32;20494;-67
2023/05/15 05:41:44;;;;;;;0.95;0.90;;;13.60;99.90;;;;;;4395078;32;20097;-67
2023/05/15 05:44:10;;;;;;;2.05;0.85;;;13.70;99.90;;;;;;4396823;32;20102;-67
2023/05/15 05:46:36;;;;;;;4.25;1.60;;;13.80;99.90;;;;;;4396614;32;20494;-67
2023/05/15 05:49:01;;;;;;;1.12;1.05;;;13.90;99.90;;;;;;4397231;32;20573;-67
2023/05/15 05:51:27;;;;;;;0.75;0.70;;;14.00;99.90;;;;;;4393648;32;20112;-69
2023/05/15 05:53:52;;;;;;;0.65;0.65;;;14.10;99.90;;;;;;4391166;32;20094;-67
2023/05/15 05:56:20;;;;;;;4.37;1.40;;;14.20;99.90;;;;;;4389305;32;20486;-69
2023/05/15 05:58:46;;;;;;;6.15;1.80;;;14.30;99.90;;;;;;4390454;32;20376;-67
2023/05/15 06:01:11;;;;;;;0.98;0.65;;;14.40;99.90;;;;;;4391355;32;20384;-68
2023/05/15 06:03:38;;;;;;;1.27;0.75;;;14.60;99.90;;;;;;4382819;32;20841;-66
2023/05/15 06:06:04;;;;;;;19.10;1.30;;;14.60;99.90;;;;;;4379370;32;20081;-66
2023/05/15 06:08:29;;;;;;;1.67;1.33;;;14.70;99.90;;;;;;4381480;32;20704;-67
2023/05/15 06:10:55;;;;;;;0.62;0.50;;;14.70;99.90;;;;;;4374369;32;20097;-68
2023/05/15 06:13:21;;;;;;;0.77;0.77;;;14.80;99.90;;;;;;4386321;32;20408;-68
2023/05/15 06:15:46;;;;;;;1.52;1.05;;;14.90;99.90;;;;;;4383725;32;20699;-68
2023/05/15 06:18:13;;;;;;;1.50;1.15;;;14.90;99.90;;;;;;4388791;32;20822;-67
2023/05/15 06:20:38;;;;;;;4.22;1.85;;;14.90;99.90;;;;;;4389876;32;20118;-69
2023/05/15 06:23:04;;;;;;;2.22;1.37;;;14.90;99.90;;;;;;4384842;32;20110;-69
2023/05/15 06:25:29;;;;;;;1.23;0.90;;;15.00;99.90;;;;;;4385740;32;20594;-69
2023/05/15 06:27:55;;;;;;;0.95;0.90;;;15.10;99.90;;;;;;4383922;32;20106;-68
2023/05/15 06:30:21;;;;;;;1.15;0.90;;;15.20;99.90;;;;;;4387139;32;20193;-69
2023/05/15 06:32:46;;;;;;;0.45;0.45;;;15.20;99.90;;;;;;4376783;32;20176;-68
2023/05/15 06:35:18;;;;;;;0.80;0.80;;;15.30;99.90;;;;;;4366144;32;20561;-68
2023/05/15 06:37:43;;;;;;;2.47;1.45;;;15.30;99.90;;;;;;4382519;32;20176;-68
2023/05/15 06:40:09;;;;;;;7.60;1.45;;;15.30;99.90;;;;;;4387519;32;20149;-68
2023/05/15 06:42:35;;;;;;;24.67;1.15;;;15.40;99.90;;;;;;4383583;32;20102;-66
2023/05/15 06:45:00;;;;;;;1.02;0.68;;;15.40;99.90;;;;;;4391810;32;20160;-68
2023/05/15 06:47:26;;;;;;;0.62;0.60;;;15.40;99.90;;;;;;4389133;32;20097;-68
2023/05/15 06:49:52;;;;;;;2.17;1.40;;;15.40;99.90;;;;;;4377095;32;21318;-67
2023/05/15 06:52:19;;;;;;;2.55;1.33;;;15.40;99.90;;;;;;4385121;32;20187;-66
2023/05/15 06:54:44;;;;;;;5.57;2.15;;;15.40;99.90;;;;;;4388326;32;20069;-67
2023/05/15 06:57:10;;;;;;;0.70;0.70;;;15.50;99.90;;;;;;4378426;32;21483;-65
2023/05/15 06:59:36;;;;;;;3.15;1.60;;;15.50;99.90;;;;;;4390639;32;20086;-67
2023/05/15 07:02:02;;;;;;;1.42;0.95;;;15.60;99.90;;;;;;4385031;32;20634;-67
2023/05/15 07:04:29;;;;;;;2.37;1.10;;;15.70;99.90;;;;;;4384479;32;20066;-66
2023/05/15 07:06:55;;;;;;;0.85;0.85;;;15.80;99.90;;;;;;4386828;32;20467;-66
2023/05/15 07:09:20;;;;;;;0.88;0.77;;;15.90;99.90;;;;;;4385729;32;20085;-66
2023/05/15 07:11:46;;;;;;;0.73;0.73;;;16.10;99.90;;;;;;4383138;32;20422;-65
2023/05/15 07:14:11;;;;;;;1.33;1.23;;;16.20;99.90;;;;;;4387781;32;20581;-64
2023/05/15 07:16:37;;;;;;;0.88;0.73;;;16.30;99.90;;;;;;4386363;32;20765;-65
2023/05/15 07:19:02;;;;;;;3.37;1.30;;;16.40;99.90;;;;;;4388816;32;20482;-64
2023/05/15 07:21:28;;;;;;;0.43;0.43;;;16.50;99.90;;;;;;4386160;32;20335;-65
2023/05/15 07:23:53;;;;;;;2.92;1.02;;;16.70;99.90;;;;;;4379268;32;20164;-65
2023/05/15 07:26:19;;;;;;;36.33;2.15;;;16.80;99.90;;;;;;4385804;32;20731;-63
2023/05/15 07:28:45;;;;;;;2.17;1.27;;;17.00;99.90;;;;;;4386269;32;20193;-66
2023/05/15 07:31:10;;;;;;;0.82;0.77;;;17.10;99.90;;;;;;4374550;32;20574;-65
2023/05/15 07:33:36;;;;;;;0.50;0.50;;;17.30;99.90;;;;;;4377600;32;20077;-67
2023/05/15 07:36:01;;;;;;;3.17;1.55;;;17.40;99.90;;;;;;4369100;32;20525;-66
2023/05/15 07:38:27;;;;;;;15.75;0.93;;;17.60;99.90;;;;;;4374579;32;20234;-66
2023/05/15 07:40:52;;;;;;;0.50;0.50;;;17.90;99.90;;;;;;4383936;32;20078;-67
2023/05/15 07:43:18;;;;;;;1.70;0.52;;;18.20;99.90;;;;;;4382244;32;20297;-66
2023/05/15 07:45:43;;;;;;;0.75;0.73;;;18.40;99.90;;;;;;4382636;32;20104;-68
2023/05/15 07:48:19;;;;;;;4.00;0.40;;;18.50;99.90;;;;;;4376265;32;20101;-67
2023/05/15 07:50:46;;;;;;;4.35;1.00;;;18.50;99.90;;;;;;4340863;32;21666;-68
2023/05/15 07:53:12;;;;;;;0.43;0.43;;;18.50;99.90;;;;;;4344557;32;22289;-68
2023/05/15 07:55:39;;;;;;;7.93;0.80;;;18.40;99.90;;;;;;4363739;32;20231;-67
2023/05/15 07:58:06;;;;;;;1.25;0.82;;;18.40;99.90;;;;;;4362673;32;20101;-67
2023/05/15 08:00:32;;;;;;;0.40;0.40;;;18.40;99.90;;;;;;4367863;32;20280;-68
2023/05/15 08:02:58;;;;;;;0.90;0.70;;;18.40;99.90;;;;;;4375679;32;20106;-66
2023/05/15 08:05:25;;;;;;;0.60;0.60;;;18.30;99.90;;;;;;4373923;32;21394;-66
2023/05/15 08:07:50;;;;;;;0.30;0.30;;;18.30;99.90;;;;;;4373781;32;21015;-66
2023/05/15 08:10:16;;;;;;;0.60;0.60;;;18.20;99.90;;;;;;4365484;32;20089;-66
2023/05/15 08:12:45;;;;;;;0.50;0.50;;;18.20;99.80;;;;;;4372466;32;20213;-65
2023/05/15 08:15:11;;;;;;;0.40;0.40;;;18.20;99.90;;;;;;4373496;32;20143;-62
2023/05/15 08:17:36;;;;;;;0.30;0.30;;;18.10;99.90;;;;;;4375571;32;20493;-65
2023/05/15 08:20:03;;;;;;;4.78;1.12;;;18.10;99.90;;;;;;4371666;32;20226;-65
2023/05/15 08:22:29;;;;;;;0.73;0.73;;;18.10;99.90;;;;;;4378102;32;20101;-66
2023/05/15 08:24:58;;;;;;;0.68;0.68;;;18.10;99.90;;;;;;4374977;32;20101;-66
2023/05/15 08:27:23;;;;;;;3.80;1.40;;;18.10;99.90;;;;;;4386230;32;20090;-63
2023/05/15 08:29:49;;;;;;;0.60;0.55;;;18.00;99.90;;;;;;4378932;32;20426;-66
2023/05/15 08:32:14;;;;;;;0.50;0.50;;;18.00;99.90;;;;;;4373822;32;20062;-63
2023/05/15 08:34:40;;;;;;;1.52;1.17;;;17.90;99.90;;;;;;4387213;32;21021;-65
2023/05/15 08:37:06;;;;;;;4.07;1.48;;;17.90;99.90;;;;;;4376660;32;20856;-66
2023/05/15 08:39:31;;;;;;;0.50;0.50;;;17.90;99.90;;;;;;4380090;32;20098;-68
2023/05/15 08:42:19;;;;;;;1.02;0.70;;;18.00;99.90;;;;;;4382064;32;20086;-67
2023/05/15 08:44:45;;;;;;;1.25;0.85;;;18.00;99.90;;;;;;4356699;32;20134;-65
2023/05/15 08:47:12;;;;;;;1.75;1.50;;;18.00;99.90;;;;;;4369591;32;21102;-65
2023/05/15 08:49:59;;;;;;;0.43;0.43;;;18.10;99.90;;;;;;4377052;32;20926;-63
2023/05/15 08:52:25;;;;;;;0.35;0.35;;;18.10;99.90;;;;;;4363715;32;20696;-65
2023/05/15 08:54:51;;;;;;;0.62;0.62;;;18.30;99.90;;;;;;4375870;32;20172;-64
2023/05/15 08:57:17;;;;;;;0.40;0.40;;;18.40;99.90;;;;;;4381303;32;20714;-63
2023/05/15 08:59:43;;;;;;;0.62;0.62;;;18.50;99.90;;;;;;4379590;32;20437;-66
2023/05/15 09:02:09;;;;;;;0.50;0.50;;;18.50;99.90;;;;;;4372868;32;21508;-66
2023/05/15 09:04:34;;;;;;;2.62;1.20;;;18.60;99.90;;;;;;4375190;32;21250;-66
2023/05/15 09:07:01;;;;;;;0.50;0.50;;;18.60;99.90;;;;;;4367914;32;21453;-66
2023/05/15 09:09:28;;;;;;;0.43;0.43;;;18.60;99.90;;;;;;4366798;32;20158;-64
2023/05/15 09:11:54;;;;;;;0.50;0.50;;;18.60;99.90;;;;;;4378735;32;21541;-65
2023/05/15 09:14:20;;;;;;;0.60;0.60;;;18.50;99.50;;;;;;4382987;32;20158;-66
2023/05/15 09:16:48;;;;;;;0.43;0.43;;;18.40;99.90;;;;;;4380749;32;20129;-65
2023/05/15 09:19:14;;;;;;;1.08;0.88;;;18.30;99.90;;;;;;4373041;32;20105;-66
2023/05/15 09:21:39;;;;;;;0.57;0.52;;;18.30;99.90;;;;;;4361139;32;20074;-65
2023/05/15 09:24:23;;;;;;;0.43;0.43;;;18.20;99.90;;;;;;4381015;32;20113;-67
2023/05/15 09:27:06;;;;;;;0.35;0.35;;;18.20;99.90;;;;;;4380253;32;20612;-66
2023/05/15 09:29:33;;;;;;;1.65;0.52;;;18.20;99.90;;;;;;4365442;32;20432;-68
2023/05/15 09:32:03;;;;;;;1.50;1.15;;;18.10;99.90;;;;;;4376355;32;20098;-68
2023/05/15 09:34:30;;;;;;;0.65;0.65;;;18.10;99.90;;;;;;4378048;32;20098;-67
2023/05/15 09:36:56;;;;;;;1.05;0.95;;;18.20;99.90;;;;;;4371272;32;20097;-67
2023/05/15 09:39:22;;;;;;;0.40;0.40;;;18.30;99.90;;;;;;4372841;32;20143;-67
2023/05/15 09:41:47;;;;;;;0.50;0.50;;;18.40;99.90;;;;;;4385824;32;20086;-66
2023/05/15 09:44:25;;;;;;;2.83;1.00;;;18.40;99.90;;;;;;4379088;32;20121;-66
2023/05/15 09:46:51;;;;;;;0.82;0.52;;;18.50;99.90;;;;;;4378580;32;20086;-65
2023/05/15 09:49:18;;;;;;;0.40;0.40;;;18.60;99.90;;;;;;4385783;32;20343;-65
2023/05/15 09:51:43;;;;;;;1.00;0.60;;;18.70;99.90;;;;;;4382542;32;20109;-66
2023/05/15 09:54:17;;;;;;;2.90;0.82;;;18.80;99.90;;;;;;4385733;32;20249;-67
2023/05/15 09:56:44;;;;;;;0.30;0.30;;;18.80;99.90;;;;;;4389180;32;20085;-66
2023/05/15 09:59:13;;;;;;;1.65;1.12;;;18.80;99.90;;;;;;4386905;32;20588;-66
2023/05/15 10:01:42;;;;;;;1.10;0.88;;;18.90;99.90;;;;;;4363395;32;20160;-66
2023/05/15 10:04:08;;;;;;;6.50;1.67;;;18.90;99.90;;;;;;4359153;32;20102;-66
2023/05/15 10:06:36;;;;;;;1.08;0.98;;;19.00;99.90;;;;;;4370050;32;20498;-65
2023/05/15 10:09:02;;;;;;;1.12;0.77;;;19.00;99.90;;;;;;4371256;32;20588;-67
2023/05/15 10:11:29;;;;;;;1.65;0.88;;;19.20;99.90;;;;;;4369654;32;20161;-66
2023/05/15 10:13:55;;;;;;;1.17;0.80;;;19.30;98.80;;;;;;4361204;32;20086;-66
2023/05/15 10:16:22;;;;;;;0.82;0.65;;;19.40;97.90;;;;;;4354602;32;20128;-67
2023/05/15 10:18:50;;;;;;;0.40;0.40;;;19.50;97.90;;;;;;4370700;32;20140;-66
2023/05/15 10:21:17;;;;;;;0.98;0.60;;;19.70;98.30;;;;;;4370013;32;22327;-64
2023/05/15 10:23:44;;;;;;;0.40;0.40;;;19.70;97.90;;;;;;4377682;32;20101;-66
2023/05/15 10:26:20;;;;;;;0.93;0.60;;;19.70;97.10;;;;;;4388282;32;20679;-67
2023/05/15 10:28:47;;;;;;;0.55;0.55;;;19.80;97.10;;;;;;4387848;32;20522;-67
2023/05/15 10:31:13;;;;;;;0.73;0.73;;;20.00;97.30;;;;;;4383518;32;20645;-67
2023/05/15 10:33:39;;;;;;;0.37;0.37;;;20.10;97.10;;;;;;4383989;32;20189;-67
2023/05/15 10:36:06;;;;;;;1.62;1.02;;;20.20;96.90;;;;;;4384948;32;20113;-67
2023/05/15 10:38:34;;;;;;;19.10;2.03;;;20.30;97.80;;;;;;4386726;32;20184;-67
2023/05/15 10:41:00;;;;;;;0.65;0.65;;;20.50;98.00;;;;;;4386734;32;20117;-68
2023/05/15 10:43:27;;;;;;;1.45;0.82;;;20.90;96.90;;;;;;4383818;32;20157;-66
2023/05/15 10:45:54;;;;;;;0.57;0.57;;;21.10;95.90;;;;;;4382397;32;21019;-67
2023/05/15 10:48:20;;;;;;;1.48;0.60;;;21.10;95.70;;;;;;4382379;32;20077;-67
2023/05/15 10:50:47;;;;;;;2.12;0.57;;;21.10;96.50;;;;;;4379257;32;20436;-66
2023/05/15 10:53:13;;;;;;;1.00;0.68;;;21.10;97.30;;;;;;4375379;32;20572;-66
2023/05/15 10:55:40;;;;;;;0.37;0.37;;;21.10;95.90;;;;;;4370767;32;20088;-67
2023/05/15 10:58:08;;;;;;;0.60;0.60;;;21.00;95.10;;;;;;4353972;32;21427;-67
2023/05/15 11:00:41;;;;;;;0.98;0.90;;;20.80;96.30;;;;;;4377805;32;20101;-68
2023/05/15 11:03:07;;;;;;;0.62;0.52;;;20.80;97.60;;;;;;4383381;32;20546;-66
2023/05/15 11:06:09;;;;;;;0.47;0.47;;;20.70;97.20;;;;;;4385973;32;20085;-66
2023/05/15 11:08:36;;;;;;;0.47;0.47;;;20.70;97.40;;;;;;4360624;32;20137;-68
2023/05/15 11:11:01;;;;;;;0.50;0.50;;;20.60;97.40;;;;;;4367282;32;20640;-66
2023/05/15 11:14:07;;;;;;;1.10;0.82;;;20.40;97.00;;;;;;4361975;32;20180;-67
2023/05/15 11:16:54;;;;;;;0.30;0.30;;;20.30;97.30;;;;;;4351358;32;20085;-69
2023/05/15 11:19:24;;;;;;;0.80;0.60;;;20.10;97.20;;;;;;4351213;32;20113;-68
2023/05/15 11:21:56;;;;;;;0.43;0.43;;;20.10;96.90;;;;;;4358441;32;20759;-68
2023/05/15 11:24:28;;;;;;;0.40;0.40;;;19.90;96.50;;;;;;4365635;32;20123;-67
2023/05/15 11:27:03;;;;;;;0.50;0.50;;;19.90;96.10;;;;;;4364162;32;20569;-69
2023/05/15 11:29:29;;;;;;;0.37;0.37;;;19.80;96.30;;;;;;4364121;32;20163;-67
2023/05/15 11:31:54;;;;;;;0.45;0.40;;;19.80;96.20;;;;;;4372689;32;20350;-67
2023/05/15 11:34:40;;;;;;;0.50;0.50;;;19.80;95.60;;;;;;4372831;32;20549;-68
2023/05/15 11:37:15;;;;;;;0.80;0.60;;;19.70;97.10;;;;;;4363649;32;21613;-67
2023/05/15 11:39:42;;;;;;;2.37;0.60;;;19.70;97.50;;;;;;4371971;32;20100;-68
2023/05/15 11:42:10;;;;;;;0.52;0.40;;;19.70;97.90;;;;;;4365660;32;20102;-67
2023/05/15 11:44:36;;;;;;;24.45;0.98;;;19.60;98.30;;;;;;4360849;32;89128;-66
2023/05/15 11:47:02;;;;;;;0.50;0.50;;;19.80;97.10;;;;;;4367470;32;20090;-66
2023/05/15 11:49:27;;;;;;;1.77;0.80;;;19.90;96.70;;;;;;4373976;32;20819;-66
2023/05/15 11:51:53;;;;;;;0.50;0.50;;;20.00;97.00;;;;;;4370551;32;20094;-68
2023/05/15 11:54:19;;;;;;;0.62;0.62;;;20.00;97.10;;;;;;4378517;32;20189;-67
2023/05/15 11:56:46;;;;;;;0.55;0.50;;;20.20;96.70;;;;;;4382035;32;20732;-68
2023/05/15 11:59:13;;;;;;;0.47;0.47;;;20.50;96.10;;;;;;4389599;32;20072;-68
2023/05/15 12:01:41;;;;;;;0.30;0.30;;;20.90;95.60;;;;;;4381970;32;20850;-67
2023/05/15 12:04:15;;;;;;;0.45;0.45;;;21.20;95.50;;;;;;4373185;32;20062;-65
2023/05/15 12:06:43;;;;;;;0.50;0.40;;;21.40;96.10;;;;;;4397959;32;20079;-66
2023/05/15 12:09:13;;;;;;;0.82;0.80;;;21.40;95.20;;;;;;4396499;32;20524;-67
2023/05/15 12:11:39;;;;;;;1.00;0.65;;;21.90;95.50;;;;;;4395987;32;20437;-66
2023/05/15 12:14:04;;;;;;;0.37;0.37;;;22.70;93.00;;;;;;4390632;32;20575;-66
2023/05/15 12:16:31;;;;;;;0.32;0.30;;;23.50;93.60;;;;;;4388057;32;20086;-66
2023/05/15 12:18:59;;;;;;;0.50;0.50;;;24.30;91.70;;;;;;4388853;32;20200;-66
2023/05/15 12:21:26;;;;;;;0.30;0.30;;;24.70;90.70;;;;;;4413144;32;20089;-66
2023/05/15 12:23:52;;;;;;;0.15;0.15;;;25.30;88.60;;;;;;4407495;32;20097;-67
2023/05/15 12:26:20;;;;;;;0.17;0.17;;;25.50;84.40;;;;;;4403888;32;20074;-67
2023/05/15 12:28:47;;;;;;;0.45;0.37;;;25.50;84.10;;;;;;4398994;32;20193;-66
2023/05/15 12:31:16;;;;;;;0.40;0.40;;;25.10;85.40;;;;;;4398715;32;20204;-66
2023/05/15 12:33:42;;;;;;;0.30;0.30;;;24.70;84.70;;;;;;4422419;26;20237;-75
2023/05/15 12:36:08;;;;;;;0.70;0.40;;;24.40;86.40;;;;;;4397627;32;20122;-70
2023/05/15 12:38:35;;;;;;;0.55;0.20;;;24.50;88.30;;;;;;4403340;32;20718;-72
2023/05/15 12:41:00;;;;;;;0.45;0.40;;;24.60;84.70;;;;;;4401514;32;20085;-73
2023/05/15 12:43:26;;;;;;;0.93;0.75;;;24.90;85.50;;;;;;4401629;32;20139;-69
2023/05/15 12:45:53;;;;;;;0.47;0.30;;;24.90;84.80;;;;;;4395442;32;20105;-68